F/V Moorea — FMIT — position and weather

sailwx.info

Track history (hours):
 
Tides and Currents Weather Stations Pressure Air Temp Water Temp Dewpoint Dewpoint Depression Visibility Wind Speed Wind Dir Waves Ship Positions

F/V Moorea

Last reported at 2017-Apr-24 03:15 UTC. Time now 2017-Apr-24 05:24 UTC.
Position N 46°43' W 003°02'.

Length 18 m.

Type: Fishing. MMSI: 228239900.

Date/timePositionNaut miles runAvg speedWind from/ knotsBaromVisibWave heightAir tempDewpointWater temp
2017-Apr-24 03:15N 46°43' W 003°02'2 4.3
2017-Apr-24 02:51N 46°45' W 003°02'3 8.1
2017-Apr-24 02:26N 46°48' W 002°60'4 9.4
2017-Apr-24 02:00N 46°52' W 002°57'5 9.8
2017-Apr-24 01:30N 46°56' W 002°53'4 9.0
2017-Apr-24 01:00N 46°60' W 002°50'5 9.1
2017-Apr-24 00:30N 47°04' W 002°46'5 9.2
2017-Apr-24 00:00N 47°08' W 002°43'5 9.3
2017-Apr-23 23:30N 47°12' W 002°40'4 9.2
2017-Apr-23 23:00N 47°16' W 002°37'4 8.4
2017-Apr-23 22:29N 47°19' W 002°32'1 2.1
2017-Apr-23 22:00N 47°18' W 002°31'0 0.0
2017-Apr-22 22:39N 47°18' W 002°31'0 0.0
2017-Apr-22 22:26N 47°18' W 002°31'1 2.5
2017-Apr-22 22:00N 47°19' W 002°32'4 7.7
2017-Apr-22 21:30N 47°16' W 002°36'6 8.8
2017-Apr-22 20:51N 47°11' W 002°40'33 3.3
2017-Apr-22 10:42N 46°41' W 003°01'1 2.3
2017-Apr-22 10:24N 46°42' W 003°01'3 3.1
2017-Apr-22 09:21N 46°43' W 003°05'1 3.8
2017-Apr-22 08:57N 46°43' W 003°07'2 3.8
2017-Apr-22 08:29N 46°43' W 003°10'1 2.1
2017-Apr-22 08:00N 46°43' W 003°11'2 3.9
2017-Apr-22 07:29N 46°42' W 003°09'1 1.1
2017-Apr-22 06:21N 46°41' W 003°10'1 3.8
2017-Apr-22 06:00N 46°42' W 003°12'1 2.1
2017-Apr-22 05:29N 46°43' W 003°11'2 4.1
2017-Apr-22 05:00N 46°42' W 003°09'2 4.0
2017-Apr-22 04:30N 46°44' W 003°06'4 7.7
2017-Apr-22 04:00N 46°47' W 003°03'5 9.9
2017-Apr-22 03:30N 46°51' W 002°59'510.0
2017-Apr-22 03:00N 46°55' W 002°55'510.0
2017-Apr-22 02:31N 46°59' W 002°51'510.2
2017-Apr-22 02:01N 47°04' W 002°47'510.2
2017-Apr-22 01:30N 47°08' W 002°43'5 9.7
2017-Apr-22 01:00N 47°12' W 002°39'5 9.9
2017-Apr-22 00:30N 47°16' W 002°35'4 7.1
2017-Apr-22 00:00N 47°18' W 002°31'0 0.1
2017-Apr-21 23:25N 47°18' W 002°31'2 5.1
2017-Apr-21 23:00N 47°18' W 002°34'7 9.4
2017-Apr-21 22:15N 47°12' W 002°40'210.0
2017-Apr-21 22:00N 47°10' W 002°42'5 9.5
2017-Apr-21 21:27N 47°06' W 002°46'24 7.2
2017-Apr-21 18:03N 46°46' W 003°08'0 3.9
2017-Apr-21 17:57N 46°46' W 003°08'3 1.7
2017-Apr-21 15:57N 46°43' W 003°10'1 0.8
2017-Apr-21 14:27N 46°44' W 003°11'12 1.1
2017-Apr-21 03:27N 46°53' W 002°58'4 9.7
2017-Apr-21 03:00N 46°57' W 002°55'5 9.9
2017-Apr-21 02:30N 47°01' W 002°51'5 9.8
2017-Apr-21 02:00N 47°05' W 002°47'5 9.8
2017-Apr-21 01:31N 47°09' W 002°43'5 9.8
2017-Apr-21 00:59N 47°13' W 002°39'510.0
2017-Apr-21 00:30N 47°17' W 002°35'3 2.2
2017-Apr-20 23:16N 47°18' W 002°31'2 6.6
2017-Apr-20 23:00N 47°18' W 002°33'15 9.3
2017-Apr-20 21:21N 47°06' W 002°46'18 0.4
2017-Apr-19 02:11N 46°56' W 003°09'2 9.7
2017-Apr-19 01:59N 46°58' W 003°07'5 9.8
2017-Apr-19 01:29N 47°01' W 003°01'5 9.8
2017-Apr-19 00:59N 47°04' W 002°56'5 9.9
2017-Apr-19 00:29N 47°07' W 002°50'510.1
2017-Apr-18 23:59N 47°10' W 002°45'7 9.9
2017-Apr-18 23:14N 47°16' W 002°37'310.2
2017-Apr-18 22:59N 47°18' W 002°35'3 1.9
2017-Apr-18 21:35N 47°18' W 002°31'1 8.3
2017-Apr-18 21:29N 47°19' W 002°32'5 9.2
2017-Apr-18 20:59N 47°15' W 002°37'5 9.1
2017-Apr-18 20:29N 47°12' W 002°41'9 9.1
2017-Apr-18 19:29N 47°05' W 002°49'33 1.4
2017-Apr-17 19:29N 46°50' W 003°32'2 0.1
2017-Apr-17 04:18N 46°52' W 003°33'1 3.6
2017-Apr-17 03:59N 46°51' W 003°31'2 3.9
2017-Apr-17 03:22N 46°52' W 003°28'2 3.9
2017-Apr-17 02:49N 46°53' W 003°25'3 6.8
2017-Apr-17 02:27N 46°55' W 003°22'510.4
2017-Apr-17 01:59N 46°57' W 003°16'5 9.8
2017-Apr-17 01:29N 47°00' W 003°10'5 9.5
2017-Apr-17 01:01N 47°03' W 003°05'610.5
2017-Apr-17 00:29N 47°06' W 002°58'510.1
2017-Apr-16 23:59N 47°08' W 002°52'510.2
2017-Apr-16 23:29N 47°11' W 002°46'610.4
2017-Apr-16 22:53N 47°15' W 002°38'410.4
2017-Apr-16 22:29N 47°18' W 002°34'2 0.1
2017-Apr-15 15:53N 47°19' W 002°32'4 8.6
2017-Apr-15 15:29N 47°16' W 002°35'610.3
2017-Apr-15 14:53N 47°13' W 002°43'910.1
2017-Apr-15 13:59N 47°09' W 002°55'29 2.1
2017-Apr-15 00:31N 46°53' W 003°31'1 4.0
2017-Apr-15 00:24N 46°54' W 003°30'9 5.0
2017-Apr-14 22:32N 46°59' W 003°19'110.5
2017-Apr-14 22:26N 46°60' W 003°18'510.1
2017-Apr-14 21:59N 47°02' W 003°12'510.2
2017-Apr-14 21:29N 47°04' W 003°05'610.1
2017-Apr-14 20:53N 47°07' W 002°58'410.2
2017-Apr-14 20:29N 47°09' W 002°52'5 9.7
2017-Apr-14 19:59N 47°12' W 002°46'6 9.7
2017-Apr-14 19:23N 47°15' W 002°39'410.1
2017-Apr-14 18:59N 47°17' W 002°34'2 4.9
2017-Apr-14 18:29N 47°18' W 002°31'0 0.0
2017-Apr-14 17:59N 47°18' W 002°31'3 5.4
2017-Apr-14 17:29N 47°17' W 002°35'7 9.4
2017-Apr-14 16:47N 47°13' W 002°42'310.0
2017-Apr-14 16:29N 47°12' W 002°46'5 9.8
2017-Apr-14 15:59N 47°09' W 002°52'31 3.2
2017-Apr-14 06:19N 46°55' W 003°33'1 4.0
2017-Apr-14 05:57N 46°55' W 003°31'2 4.0
2017-Apr-14 05:29N 46°56' W 003°29'3 4.0
2017-Apr-14 04:43N 46°57' W 003°24'1 2.9
2017-Apr-14 04:30N 46°57' W 003°24'  
Track history (hours):
 
Tides and Currents Weather Stations Pressure Air Temp Water Temp Dewpoint Dewpoint Depression Visibility Wind Speed Wind Dir Waves Ship Positions

F/V Moorea

Last reported at 2017-Apr-24 03:15 UTC. Time now 2017-Apr-24 05:24 UTC.
Position N 46°43' W 003°02'.

Length 18 m.

Type: Fishing. MMSI: 228239900.

Date/timePositionNaut miles runAvg speedWind from/ knotsBaromVisibWave heightAir tempDewpointWater temp
2017-Apr-24 03:15N 46°43' W 003°02'2 4.3
2017-Apr-24 02:51N 46°45' W 003°02'3 8.1
2017-Apr-24 02:26N 46°48' W 002°60'4 9.4
2017-Apr-24 02:00N 46°52' W 002°57'5 9.8
2017-Apr-24 01:30N 46°56' W 002°53'4 9.0
2017-Apr-24 01:00N 46°60' W 002°50'5 9.1
2017-Apr-24 00:30N 47°04' W 002°46'5 9.2
2017-Apr-24 00:00N 47°08' W 002°43'5 9.3
2017-Apr-23 23:30N 47°12' W 002°40'4 9.2
2017-Apr-23 23:00N 47°16' W 002°37'4 8.4
2017-Apr-23 22:29N 47°19' W 002°32'1 2.1
2017-Apr-23 22:00N 47°18' W 002°31'0 0.0
2017-Apr-22 22:39N 47°18' W 002°31'0 0.0
2017-Apr-22 22:26N 47°18' W 002°31'1 2.5
2017-Apr-22 22:00N 47°19' W 002°32'4 7.7
2017-Apr-22 21:30N 47°16' W 002°36'6 8.8
2017-Apr-22 20:51N 47°11' W 002°40'33 3.3
2017-Apr-22 10:42N 46°41' W 003°01'1 2.3
2017-Apr-22 10:24N 46°42' W 003°01'3 3.1
2017-Apr-22 09:21N 46°43' W 003°05'1 3.8
2017-Apr-22 08:57N 46°43' W 003°07'2 3.8
2017-Apr-22 08:29N 46°43' W 003°10'1 2.1
2017-Apr-22 08:00N 46°43' W 003°11'2 3.9
2017-Apr-22 07:29N 46°42' W 003°09'1 1.1
2017-Apr-22 06:21N 46°41' W 003°10'1 3.8
2017-Apr-22 06:00N 46°42' W 003°12'1 2.1
2017-Apr-22 05:29N 46°43' W 003°11'2 4.1
2017-Apr-22 05:00N 46°42' W 003°09'2 4.0
2017-Apr-22 04:30N 46°44' W 003°06'4 7.7
2017-Apr-22 04:00N 46°47' W 003°03'5 9.9
2017-Apr-22 03:30N 46°51' W 002°59'510.0
2017-Apr-22 03:00N 46°55' W 002°55'510.0
2017-Apr-22 02:31N 46°59' W 002°51'510.2
2017-Apr-22 02:01N 47°04' W 002°47'510.2
2017-Apr-22 01:30N 47°08' W 002°43'5 9.7
2017-Apr-22 01:00N 47°12' W 002°39'5 9.9
2017-Apr-22 00:30N 47°16' W 002°35'4 7.1
2017-Apr-22 00:00N 47°18' W 002°31'0 0.1
2017-Apr-21 23:25N 47°18' W 002°31'2 5.1
2017-Apr-21 23:00N 47°18' W 002°34'7 9.4
2017-Apr-21 22:15N 47°12' W 002°40'210.0
2017-Apr-21 22:00N 47°10' W 002°42'5 9.5
2017-Apr-21 21:27N 47°06' W 002°46'24 7.2
2017-Apr-21 18:03N 46°46' W 003°08'0 3.9
2017-Apr-21 17:57N 46°46' W 003°08'3 1.7
2017-Apr-21 15:57N 46°43' W 003°10'1 0.8
2017-Apr-21 14:27N 46°44' W 003°11'12 1.1
2017-Apr-21 03:27N 46°53' W 002°58'4 9.7
2017-Apr-21 03:00N 46°57' W 002°55'5 9.9
2017-Apr-21 02:30N 47°01' W 002°51'5 9.8
2017-Apr-21 02:00N 47°05' W 002°47'5 9.8
2017-Apr-21 01:31N 47°09' W 002°43'5 9.8
2017-Apr-21 00:59N 47°13' W 002°39'510.0
2017-Apr-21 00:30N 47°17' W 002°35'3 2.2
2017-Apr-20 23:16N 47°18' W 002°31'2 6.6
2017-Apr-20 23:00N 47°18' W 002°33'15 9.3
2017-Apr-20 21:21N 47°06' W 002°46'18 0.4
2017-Apr-19 02:11N 46°56' W 003°09'2 9.7
2017-Apr-19 01:59N 46°58' W 003°07'5 9.8
2017-Apr-19 01:29N 47°01' W 003°01'5 9.8
2017-Apr-19 00:59N 47°04' W 002°56'5 9.9
2017-Apr-19 00:29N 47°07' W 002°50'510.1
2017-Apr-18 23:59N 47°10' W 002°45'7 9.9
2017-Apr-18 23:14N 47°16' W 002°37'310.2
2017-Apr-18 22:59N 47°18' W 002°35'3 1.9
2017-Apr-18 21:35N 47°18' W 002°31'1 8.3
2017-Apr-18 21:29N 47°19' W 002°32'5 9.2
2017-Apr-18 20:59N 47°15' W 002°37'5 9.1
2017-Apr-18 20:29N 47°12' W 002°41'9 9.1
2017-Apr-18 19:29N 47°05' W 002°49'33 1.4
2017-Apr-17 19:29N 46°50' W 003°32'2 0.1
2017-Apr-17 04:18N 46°52' W 003°33'1 3.6
2017-Apr-17 03:59N 46°51' W 003°31'2 3.9
2017-Apr-17 03:22N 46°52' W 003°28'2 3.9
2017-Apr-17 02:49N 46°53' W 003°25'3 6.8
2017-Apr-17 02:27N 46°55' W 003°22'510.4
2017-Apr-17 01:59N 46°57' W 003°16'5 9.8
2017-Apr-17 01:29N 47°00' W 003°10'5 9.5
2017-Apr-17 01:01N 47°03' W 003°05'610.5
2017-Apr-17 00:29N 47°06' W 002°58'510.1
2017-Apr-16 23:59N 47°08' W 002°52'510.2
2017-Apr-16 23:29N 47°11' W 002°46'610.4
2017-Apr-16 22:53N 47°15' W 002°38'410.4
2017-Apr-16 22:29N 47°18' W 002°34'2 0.1
2017-Apr-15 15:53N 47°19' W 002°32'4 8.6
2017-Apr-15 15:29N 47°16' W 002°35'610.3
2017-Apr-15 14:53N 47°13' W 002°43'910.1
2017-Apr-15 13:59N 47°09' W 002°55'29 2.1
2017-Apr-15 00:31N 46°53' W 003°31'1 4.0
2017-Apr-15 00:24N 46°54' W 003°30'9 5.0
2017-Apr-14 22:32N 46°59' W 003°19'110.5
2017-Apr-14 22:26N 46°60' W 003°18'510.1
2017-Apr-14 21:59N 47°02' W 003°12'510.2
2017-Apr-14 21:29N 47°04' W 003°05'610.1
2017-Apr-14 20:53N 47°07' W 002°58'410.2
2017-Apr-14 20:29N 47°09' W 002°52'5 9.7
2017-Apr-14 19:59N 47°12' W 002°46'6 9.7
2017-Apr-14 19:23N 47°15' W 002°39'410.1
2017-Apr-14 18:59N 47°17' W 002°34'2 4.9
2017-Apr-14 18:29N 47°18' W 002°31'0 0.0
2017-Apr-14 17:59N 47°18' W 002°31'3 5.4
2017-Apr-14 17:29N 47°17' W 002°35'7 9.4
2017-Apr-14 16:47N 47°13' W 002°42'310.0
2017-Apr-14 16:29N 47°12' W 002°46'5 9.8
2017-Apr-14 15:59N 47°09' W 002°52'31 3.2
2017-Apr-14 06:19N 46°55' W 003°33'1 4.0
2017-Apr-14 05:57N 46°55' W 003°31'2 4.0
2017-Apr-14 05:29N 46°56' W 003°29'3 4.0
2017-Apr-14 04:43N 46°57' W 003°24'1 2.9
2017-Apr-14 04:30N 46°57' W 003°24'  

Dump ship's entire track history